Time;durP1;ratioP1;P1;durP2;ratioP2;P2;SDS_P1;SDS_P2;PMS_P1;PMS_P2;Temp;Humidity;BMP_temperature;BMP_pressure;BME280_temperature;BME280_humidity;BME280_pressure;Samples;Min_cycle;Max_cycle;Signal;HPM_P1;HPM_P2
2021/08/14 00:00:55;;;;;;;3.22;2.35;;;15.20;56.50;;;;;;4128952;28;20029;-55
2021/08/14 00:02:57;;;;;;;3.65;2.38;;;15.20;56.60;;;;;;4129463;28;20112;-58
2021/08/14 00:04:59;;;;;;;4.93;2.67;;;15.20;56.70;;;;;;4130749;28;20029;-54
2021/08/14 00:07:02;;;;;;;3.40;2.33;;;15.20;57.00;;;;;;4130790;28;20033;-58
2021/08/14 00:09:04;;;;;;;3.85;2.00;;;15.20;57.00;;;;;;4134713;28;20092;-55
2021/08/14 00:11:06;;;;;;;4.50;2.40;;;15.20;57.10;;;;;;4135495;28;20092;-56
2021/08/14 00:13:08;;;;;;;6.00;2.50;;;15.20;57.30;;;;;;4133130;28;21086;-53
2021/08/14 00:15:11;;;;;;;6.70;2.75;;;15.20;57.10;;;;;;4128768;28;20402;-54
2021/08/14 00:17:13;;;;;;;4.30;2.22;;;15.20;57.20;;;;;;4132307;28;20059;-56
2021/08/14 00:19:15;;;;;;;3.95;2.08;;;15.20;57.20;;;;;;4131991;28;20459;-58
2021/08/14 00:21:17;;;;;;;5.25;2.50;;;15.20;57.00;;;;;;4134236;28;20022;-58
2021/08/14 00:23:19;;;;;;;4.72;2.35;;;15.20;57.80;;;;;;4134090;28;20102;-63
2021/08/14 00:25:21;;;;;;;4.78;2.33;;;15.20;58.00;;;;;;4134193;28;20037;-58
2021/08/14 00:27:23;;;;;;;4.25;2.58;;;15.30;58.40;;;;;;4130192;28;20040;-58
2021/08/14 00:29:26;;;;;;;5.18;2.25;;;15.30;58.40;;;;;;4134971;28;20144;-59
2021/08/14 00:31:28;;;;;;;6.30;2.35;;;15.30;58.30;;;;;;4131327;28;20092;-58
2021/08/14 00:33:30;;;;;;;4.38;2.13;;;15.30;58.20;;;;;;4132546;28;20062;-59
2021/08/14 00:35:32;;;;;;;4.53;2.50;;;15.30;58.20;;;;;;4130596;28;20037;-59
2021/08/14 00:37:34;;;;;;;13.57;2.70;;;15.30;58.10;;;;;;4130993;28;20033;-59
2021/08/14 00:39:37;;;;;;;3.55;2.33;;;15.30;58.30;;;;;;4132757;28;20148;-59
2021/08/14 00:41:39;;;;;;;3.15;2.05;;;15.40;58.20;;;;;;4130578;28;20030;-60
2021/08/14 00:43:41;;;;;;;5.10;2.25;;;15.40;58.10;;;;;;4131423;28;20095;-59
2021/08/14 00:45:45;;;;;;;4.80;2.25;;;15.40;58.30;;;;;;4132511;28;21033;-59
2021/08/14 00:47:47;;;;;;;5.22;2.50;;;15.40;58.40;;;;;;4133885;28;20584;-58
2021/08/14 00:49:49;;;;;;;3.50;2.20;;;15.30;58.20;;;;;;4132828;28;20025;-59
2021/08/14 00:51:51;;;;;;;3.42;2.08;;;15.40;58.30;;;;;;4132741;28;20156;-60
2021/08/14 00:53:54;;;;;;;4.32;2.25;;;15.30;58.20;;;;;;4131451;28;20128;-61
2021/08/14 00:55:56;;;;;;;4.10;2.08;;;15.40;58.30;;;;;;4129087;28;20537;-58
2021/08/14 00:57:58;;;;;;;4.72;2.30;;;15.40;58.30;;;;;;4131228;28;20254;-59
2021/08/14 01:00:01;;;;;;;3.40;1.95;;;15.40;58.40;;;;;;4132736;28;20052;-60
2021/08/14 01:02:05;;;;;;;3.95;2.10;;;15.40;58.50;;;;;;4137678;28;20353;-59
2021/08/14 01:04:09;;;;;;;4.40;2.10;;;15.40;58.50;;;;;;4137488;28;20103;-59
2021/08/14 01:06:14;;;;;;;4.05;2.08;;;15.50;58.60;;;;;;4139856;28;20057;-59
2021/08/14 01:08:17;;;;;;;3.58;2.03;;;15.50;58.60;;;;;;4141878;28;20573;-58
2021/08/14 01:10:19;;;;;;;3.00;2.10;;;15.50;58.60;;;;;;4140204;28;20044;-59
2021/08/14 01:12:21;;;;;;;3.88;1.85;;;15.40;58.60;;;;;;4140442;28;20125;-59
2021/08/14 01:14:24;;;;;;;4.57;2.10;;;15.50;58.70;;;;;;4133396;28;20034;-60
2021/08/14 01:16:26;;;;;;;6.70;2.45;;;15.50;58.90;;;;;;4130080;28;20038;-60
2021/08/14 01:18:28;;;;;;;5.35;2.15;;;15.50;59.50;;;;;;4130284;28;20129;-61
2021/08/14 01:20:30;;;;;;;2.95;1.98;;;15.50;59.30;;;;;;4132433;28;20033;-62
2021/08/14 01:22:37;;;;;;;4.50;1.90;;;15.50;59.20;;;;;;4133372;28;20076;-62
2021/08/14 01:24:39;;;;;;;3.45;1.90;;;15.60;59.40;;;;;;4134208;28;20091;-57
2021/08/14 01:26:42;;;;;;;8.13;2.38;;;15.60;59.30;;;;;;4133829;28;20342;-60
2021/08/14 01:28:46;;;;;;;6.28;2.53;;;15.60;59.70;;;;;;4133893;28;20025;-60
2021/08/14 01:30:48;;;;;;;4.20;2.20;;;15.70;59.60;;;;;;4133828;28;20038;-60
2021/08/14 01:32:50;;;;;;;7.15;2.13;;;15.70;59.60;;;;;;4130144;28;20308;-57
2021/08/14 01:34:53;;;;;;;6.25;2.55;;;15.70;59.50;;;;;;4135765;28;20105;-58
2021/08/14 01:36:55;;;;;;;9.20;2.80;;;15.80;59.80;;;;;;4132610;28;20067;-58
2021/08/14 01:39:01;;;;;;;5.60;2.10;;;15.80;59.90;;;;;;4132016;28;20139;-58
2021/08/14 01:41:07;;;;;;;5.88;2.20;;;15.90;59.90;;;;;;4133344;28;20038;-52
2021/08/14 01:43:09;;;;;;;3.63;1.77;;;15.90;59.80;;;;;;4128574;28;20040;-54
2021/08/14 01:45:11;;;;;;;5.72;2.10;;;15.90;59.80;;;;;;4131084;28;20099;-53
2021/08/14 01:47:13;;;;;;;5.13;1.70;;;16.00;59.90;;;;;;4130302;28;20151;-53
2021/08/14 01:49:15;;;;;;;6.68;2.00;;;16.00;59.70;;;;;;4132798;28;20104;-54
2021/08/14 01:51:18;;;;;;;9.80;2.85;;;16.00;59.30;;;;;;4127047;28;20571;-55
2021/08/14 01:53:20;;;;;;;4.07;2.05;;;16.00;59.00;;;;;;4130266;28;20322;-55
2021/08/14 01:55:23;;;;;;;4.65;2.10;;;16.10;58.90;;;;;;4133139;28;20025;-56
2021/08/14 01:57:25;;;;;;;5.03;1.80;;;16.10;58.60;;;;;;4122852;28;20346;-55
2021/08/14 01:59:27;;;;;;;3.50;1.90;;;16.10;58.50;;;;;;4115082;28;20065;-55
2021/08/14 02:01:30;;;;;;;4.65;1.95;;;16.10;58.40;;;;;;4113978;28;20034;-54
2021/08/14 02:03:32;;;;;;;5.57;2.13;;;16.20;58.30;;;;;;4112007;28;20092;-54
2021/08/14 02:05:34;;;;;;;17.55;2.20;;;;;;;;;;4108094;28;20053;-59
2021/08/14 02:07:35;;;;;;;3.63;2.20;;;;;;;;;;4110142;28;20107;-53
2021/08/14 02:09:38;;;;;;;4.35;2.22;;;;;;;;;;4116507;28;20033;-56
2021/08/14 02:11:40;;;;;;;4.43;2.65;;;;;;;;;;4112370;28;20566;-54
2021/08/14 02:13:43;;;;;;;7.55;2.85;;;;;;;;;;4112577;28;20484;-54
2021/08/14 02:15:45;;;;;;;6.35;2.67;;;;;;;;;;4115502;28;20030;-54
2021/08/14 02:17:47;;;;;;;6.07;3.45;;;;;;;;;;4115287;28;20531;-53
2021/08/14 02:19:49;;;;;;;5.63;3.42;;;;;;;;;;4109381;28;20052;-50
2021/08/14 02:21:51;;;;;;;6.10;3.42;;;;;;;;;;4114136;28;20539;-56
2021/08/14 02:23:53;;;;;;;7.25;3.70;;;;;;;;;;4114197;28;20121;-52
2021/08/14 02:25:56;;;;;;;6.07;4.07;;;;;;;;;;4112813;28;20800;-56
2021/08/14 02:27:58;;;;;;;4.88;3.58;;;;;;;;;;4113304;28;20727;-56
2021/08/14 02:30:00;;;;;;;8.48;4.10;;;;;;;;;;4114244;28;20068;-57
2021/08/14 02:32:02;;;;;;;5.10;3.45;;;;;;;;;;4112804;28;20100;-57
2021/08/14 02:34:04;;;;;;;4.68;3.17;;;;;;;;;;4115816;28;20026;-55
2021/08/14 02:36:07;;;;;;;6.95;3.80;;;;;;;;;;4113386;28;20042;-53
2021/08/14 02:38:09;;;;;;;5.63;4.05;;;;;;;;;;4114806;28;20388;-57
2021/08/14 02:40:11;;;;;;;9.00;4.20;;;16.20;58.20;;;;;;4111129;28;20552;-54
2021/08/14 02:42:13;;;;;;;9.07;4.65;;;17.30;55.70;;;;;;4111702;28;20129;-58
2021/08/14 02:44:15;;;;;;;6.53;4.35;;;17.40;55.70;;;;;;4114409;28;20030;-59
2021/08/14 02:46:17;;;;;;;8.60;4.78;;;17.40;55.70;;;;;;4113544;28;20474;-59
2021/08/14 02:48:19;;;;;;;8.73;4.85;;;17.50;54.60;;;;;;4116234;28;20033;-56
2021/08/14 02:50:22;;;;;;;6.40;4.45;;;17.50;54.90;;;;;;4114335;28;20890;-58
2021/08/14 02:52:24;;;;;;;7.57;5.15;;;17.60;55.00;;;;;;4117316;28;20104;-59
2021/08/14 02:54:26;;;;;;;8.02;5.03;;;17.70;54.50;;;;;;4114074;28;20031;-59
2021/08/14 02:56:28;;;;;;;7.35;4.60;;;17.70;54.50;;;;;;4115791;28;20328;-58
2021/08/14 02:58:30;;;;;;;9.48;4.75;;;17.70;53.90;;;;;;4112692;28;20030;-58
2021/08/14 03:00:32;;;;;;;6.07;4.20;;;17.80;53.60;;;;;;4112464;28;20037;-58
2021/08/14 03:02:35;;;;;;;10.10;4.75;;;17.90;54.00;;;;;;4110676;28;20045;-59
2021/08/14 03:04:37;;;;;;;5.32;3.97;;;17.90;53.10;;;;;;4114357;28;20368;-53
2021/08/14 03:06:39;;;;;;;7.03;4.53;;;18.00;53.70;;;;;;4111513;28;20318;-57
2021/08/14 03:08:41;;;;;;;5.07;4.00;;;18.00;53.90;;;;;;4113334;28;20092;-55
2021/08/14 03:10:43;;;;;;;5.00;3.83;;;18.00;54.60;;;;;;4112695;28;20034;-56
2021/08/14 03:12:45;;;;;;;5.82;3.65;;;18.10;53.90;;;;;;4114441;28;20060;-58
2021/08/14 03:14:47;;;;;;;6.03;3.83;;;18.10;53.90;;;;;;4112787;28;20030;-55
2021/08/14 03:16:49;;;;;;;6.75;4.10;;;18.20;54.00;;;;;;4116567;28;20030;-60
2021/08/14 03:18:51;;;;;;;5.28;4.00;;;18.20;53.90;;;;;;4113329;28;20038;-59
2021/08/14 03:20:53;;;;;;;6.00;3.85;;;18.20;53.60;;;;;;4116501;28;20419;-58
2021/08/14 03:22:56;;;;;;;4.93;3.90;;;18.30;53.60;;;;;;4098285;28;20057;-60
2021/08/14 03:24:58;;;;;;;5.15;3.78;;;18.30;53.30;;;;;;4114099;28;20071;-59
2021/08/14 03:27:00;;;;;;;5.88;3.90;;;18.40;53.10;;;;;;4112882;28;20026;-60
2021/08/14 03:29:02;;;;;;;5.28;3.63;;;18.40;52.90;;;;;;4115015;28;20030;-57
2021/08/14 03:31:04;;;;;;;4.80;3.25;;;18.50;53.30;;;;;;4114172;28;20042;-56
2021/08/14 03:33:06;;;;;;;5.40;3.55;;;18.50;53.10;;;;;;4114057;28;20088;-56
2021/08/14 03:35:09;;;;;;;5.50;3.80;;;18.60;53.10;;;;;;4113734;28;20034;-58
2021/08/14 03:37:11;;;;;;;3.95;3.28;;;18.60;53.00;;;;;;4112101;28;20052;-59
2021/08/14 03:39:13;;;;;;;5.35;3.70;;;18.70;52.90;;;;;;4116543;28;20034;-59
2021/08/14 03:41:15;;;;;;;5.10;3.22;;;18.80;52.90;;;;;;4115427;28;20038;-59
2021/08/14 03:43:19;;;;;;;4.35;2.97;;;18.80;52.70;;;;;;4120667;28;20042;-57
2021/08/14 03:45:21;;;;;;;5.10;3.25;;;18.80;52.50;;;;;;4113517;28;20577;-60
2021/08/14 03:47:23;;;;;;;7.68;3.63;;;18.90;52.50;;;;;;4114747;28;20065;-57
2021/08/14 03:49:25;;;;;;;4.63;3.13;;;18.90;52.50;;;;;;4117301;28;20033;-60
2021/08/14 03:51:27;;;;;;;6.35;3.58;;;18.90;52.60;;;;;;4119275;28;20088;-50
2021/08/14 03:53:31;;;;;;;5.25;3.60;;;18.90;52.20;;;;;;4115363;28;20611;-49
2021/08/14 03:55:33;;;;;;;7.25;3.50;;;18.90;52.20;;;;;;4118189;28;20119;-53
2021/08/14 03:57:36;;;;;;;9.15;4.18;;;19.00;52.20;;;;;;4116133;28;20144;-51
2021/08/14 03:59:38;;;;;;;6.75;4.28;;;19.10;50.10;;;;;;4116024;28;20041;-50
2021/08/14 04:01:40;;;;;;;5.63;4.60;;;19.10;51.00;;;;;;4113916;28;20390;-48
2021/08/14 04:03:43;;;;;;;5.60;4.10;;;19.10;51.40;;;;;;4116762;28;20442;-52
2021/08/14 04:05:45;;;;;;;15.75;4.55;;;19.10;51.50;;;;;;4117753;28;20052;-56
2021/08/14 04:07:47;;;;;;;8.15;4.30;;;19.10;51.50;;;;;;4117273;28;20102;-60
2021/08/14 04:09:49;;;;;;;6.13;4.05;;;19.10;51.50;;;;;;4115951;28;20045;-58
2021/08/14 04:11:51;;;;;;;6.38;3.67;;;19.10;51.80;;;;;;4116075;28;20528;-55
2021/08/14 04:13:53;;;;;;;10.93;4.00;;;19.10;51.80;;;;;;4116616;28;21083;-54
2021/08/14 04:15:55;;;;;;;5.50;3.65;;;19.10;51.50;;;;;;4110698;28;20124;-52
2021/08/14 04:17:58;;;;;;;11.93;4.18;;;19.20;51.80;;;;;;4115414;28;20095;-53
2021/08/14 04:20:01;;;;;;;11.40;3.75;;;19.20;52.00;;;;;;4116276;28;20208;-50
2021/08/14 04:22:03;;;;;;;10.02;3.55;;;19.30;52.10;;;;;;4116666;28;20060;-54
2021/08/14 04:24:05;;;;;;;9.18;3.60;;;19.30;52.10;;;;;;4116398;28;20448;-47
2021/08/14 04:26:07;;;;;;;5.70;3.13;;;19.30;52.30;;;;;;4117678;28;20401;-50
2021/08/14 04:28:10;;;;;;;9.48;3.50;;;19.30;52.50;;;;;;4115913;28;20708;-53
2021/08/14 04:30:12;;;;;;;6.88;4.15;;;19.30;52.70;;;;;;4117546;28;20338;-56
2021/08/14 04:32:14;;;;;;;6.93;3.28;;;19.30;53.20;;;;;;4115301;28;20034;-51
2021/08/14 04:34:16;;;;;;;6.90;3.28;;;19.30;53.50;;;;;;4117001;28;20061;-52
2021/08/14 04:36:18;;;;;;;4.30;3.28;;;19.30;53.50;;;;;;4116542;28;20054;-52
2021/08/14 04:38:20;;;;;;;5.13;2.80;;;19.40;53.40;;;;;;4114819;28;20022;-55
2021/08/14 04:40:23;;;;;;;5.88;2.70;;;19.40;53.50;;;;;;4115141;28;20080;-49
2021/08/14 04:42:25;;;;;;;3.90;2.73;;;19.50;53.40;;;;;;4114341;28;20041;-58
2021/08/14 04:44:27;;;;;;;4.60;2.38;;;19.60;53.30;;;;;;4116853;28;20044;-57
2021/08/14 04:46:36;;;;;;;3.85;2.20;;;19.70;53.10;;;;;;4114133;28;20030;-54
2021/08/14 04:48:38;;;;;;;5.97;2.33;;;19.80;53.60;;;;;;4115824;28;20084;-52
2021/08/14 04:50:40;;;;;;;3.50;2.20;;;19.90;52.90;;;;;;4114811;28;20109;-54
2021/08/14 04:52:42;;;;;;;3.42;2.10;;;19.90;52.80;;;;;;4114352;28;20182;-52
2021/08/14 04:54:44;;;;;;;4.85;1.90;;;19.90;52.80;;;;;;4117306;28;20270;-57
2021/08/14 04:56:46;;;;;;;3.67;2.13;;;19.90;52.70;;;;;;4118762;28;20152;-55
2021/08/14 04:58:49;;;;;;;3.53;1.95;;;19.90;52.70;;;;;;4115350;28;20394;-56
2021/08/14 05:00:51;;;;;;;2.65;1.83;;;;;;;;;;4116315;28;20080;-53
2021/08/14 05:02:53;;;;;;;4.25;1.80;;;;;;;;;;4120409;28;20042;-54
2021/08/14 05:04:55;;;;;;;2.33;1.75;;;;;;;;;;4116764;28;20030;-53
2021/08/14 05:06:57;;;;;;;3.20;2.10;;;;;;;;;;4112002;28;20057;-54
2021/08/14 05:08:59;;;;;;;3.13;2.05;;;19.90;52.70;;;;;;4116364;28;20280;-57
2021/08/14 05:11:01;;;;;;;4.38;2.20;;;;;;;;;;4115347;28;20469;-63
2021/08/14 05:13:04;;;;;;;3.20;2.10;;;;;;;;;;4116325;28;20034;-59
2021/08/14 05:15:06;;;;;;;6.68;2.35;;;;;;;;;;4116810;28;20528;-54
2021/08/14 05:17:08;;;;;;;4.10;2.65;;;20.20;51.80;;;;;;4112659;28;20049;-59
2021/08/14 05:19:11;;;;;;;6.32;3.25;;;20.30;51.00;;;;;;4114759;28;20066;-58
2021/08/14 05:21:13;;;;;;;3.78;2.60;;;20.30;50.60;;;;;;4115556;28;20045;-60
2021/08/14 05:23:15;;;;;;;6.65;3.00;;;20.30;50.90;;;;;;4116526;28;20338;-59
2021/08/14 05:25:17;;;;;;;5.38;2.70;;;20.30;50.30;;;;;;4115845;28;20045;-59
2021/08/14 05:27:19;;;;;;;3.25;2.20;;;20.30;50.70;;;;;;4114755;28;20149;-57
2021/08/14 05:29:21;;;;;;;3.72;2.53;;;20.30;51.00;;;;;;4116683;28;20772;-56
2021/08/14 05:31:24;;;;;;;3.92;2.67;;;20.30;51.10;;;;;;4113986;28;20177;-60
2021/08/14 05:33:26;;;;;;;4.90;2.20;;;20.40;50.50;;;;;;4116099;28;20029;-60
2021/08/14 05:35:28;;;;;;;4.28;2.58;;;20.40;50.80;;;;;;4116247;28;20151;-61
2021/08/14 05:37:30;;;;;;;4.57;2.45;;;20.50;51.00;;;;;;4114261;28;20173;-52
2021/08/14 05:39:32;;;;;;;6.10;2.20;;;20.50;51.20;;;;;;4115594;28;20034;-61
2021/08/14 05:41:39;;;;;;;2.83;1.70;;;20.60;50.90;;;;;;4115544;28;20033;-56
2021/08/14 05:43:41;;;;;;;2.88;1.70;;;20.70;51.20;;;;;;4115625;28;20057;-61
2021/08/14 05:45:43;;;;;;;3.80;2.05;;;;;;;;;;4114279;28;20125;-61
2021/08/14 05:47:45;;;;;;;4.40;1.80;;;;;;;;;;4115850;28;20034;-60
2021/08/14 05:49:47;;;;;;;2.72;1.67;;;20.70;51.30;;;;;;4115116;28;20026;-62
2021/08/14 05:51:49;;;;;;;3.17;1.40;;;20.70;50.50;;;;;;4115443;28;20058;-62
2021/08/14 05:53:51;;;;;;;1.98;1.30;;;20.80;50.90;;;;;;4113945;28;20030;-61
2021/08/14 05:55:53;;;;;;;2.65;1.55;;;20.70;50.70;;;;;;4113623;28;20034;-60
2021/08/14 05:57:56;;;;;;;1.65;1.30;;;20.70;50.60;;;;;;4117988;28;21185;-61
2021/08/14 05:59:58;;;;;;;1.63;1.27;;;20.70;50.80;;;;;;4111278;28;20394;-61
2021/08/14 06:02:00;;;;;;;1.33;1.05;;;20.70;50.70;;;;;;4113643;28;20026;-61
2021/08/14 06:04:03;;;;;;;1.15;1.02;;;20.70;50.90;;;;;;4114319;28;21751;-60
2021/08/14 06:06:05;;;;;;;1.88;1.40;;;20.70;51.00;;;;;;4111321;28;20113;-60
2021/08/14 06:08:07;;;;;;;1.60;1.30;;;20.60;50.60;;;;;;4116732;28;21211;-61
2021/08/14 06:10:10;;;;;;;2.20;1.17;;;20.60;50.90;;;;;;4114858;28;20086;-61
2021/08/14 06:12:12;;;;;;;2.28;1.30;;;20.70;50.70;;;;;;4133614;28;20371;-62
2021/08/14 06:14:14;;;;;;;1.63;1.20;;;20.70;50.60;;;;;;4124161;28;20046;-63
2021/08/14 06:16:16;;;;;;;1.35;0.90;;;20.60;50.70;;;;;;4122407;28;20033;-61
2021/08/14 06:18:19;;;;;;;1.20;1.00;;;20.70;50.70;;;;;;4117412;28;20277;-63
2021/08/14 06:20:21;;;;;;;1.25;1.10;;;20.70;50.70;;;;;;4119997;28;20530;-60
2021/08/14 06:22:23;;;;;;;1.23;0.90;;;20.70;50.50;;;;;;4120802;28;20044;-61
2021/08/14 06:24:25;;;;;;;1.02;0.65;;;20.70;50.80;;;;;;4113501;28;20673;-61
2021/08/14 06:26:27;;;;;;;1.33;0.85;;;20.70;51.20;;;;;;4116040;28;20040;-61
2021/08/14 06:28:29;;;;;;;1.08;0.93;;;20.70;50.60;;;;;;4113445;28;20049;-61
2021/08/14 06:30:31;;;;;;;1.00;0.82;;;20.70;50.70;;;;;;4113983;28;20034;-62
2021/08/14 06:32:34;;;;;;;1.27;1.08;;;20.70;50.70;;;;;;4111081;28;20291;-62
2021/08/14 06:34:36;;;;;;;2.08;1.35;;;20.80;50.90;;;;;;4114906;28;20765;-63
2021/08/14 06:36:38;;;;;;;2.45;1.60;;;20.80;50.80;;;;;;4114527;28;20313;-61
2021/08/14 06:38:40;;;;;;;2.40;1.33;;;20.80;50.70;;;;;;4111056;28;20089;-63
2021/08/14 06:40:42;;;;;;;2.13;1.45;;;20.80;50.70;;;;;;4113942;28;20116;-62
2021/08/14 06:42:45;;;;;;;2.70;1.48;;;20.80;50.80;;;;;;4095846;28;20031;-61
2021/08/14 06:44:47;;;;;;;3.10;1.70;;;20.80;50.60;;;;;;4113059;28;20026;-63
2021/08/14 06:46:49;;;;;;;2.72;1.60;;;20.80;50.60;;;;;;4114459;28;20533;-60
2021/08/14 06:48:51;;;;;;;3.85;1.73;;;20.80;50.70;;;;;;4113158;28;20033;-62
2021/08/14 06:50:53;;;;;;;3.95;2.25;;;20.80;50.70;;;;;;4114765;28;20034;-61
2021/08/14 06:52:56;;;;;;;3.85;2.00;;;20.80;50.70;;;;;;4111840;28;20069;-66
2021/08/14 06:54:58;;;;;;;3.33;2.10;;;20.80;50.70;;;;;;4110851;28;20026;-58
2021/08/14 06:57:00;;;;;;;6.40;2.38;;;20.80;50.40;;;;;;4114663;28;20103;-61
2021/08/14 06:59:02;;;;;;;3.03;2.00;;;20.80;50.50;;;;;;4121336;28;20423;-61
2021/08/14 07:01:04;;;;;;;4.57;2.40;;;20.70;50.70;;;;;;4120626;28;20149;-61
2021/08/14 07:03:09;;;;;;;4.60;2.13;;;20.70;50.70;;;;;;4119935;28;20033;-61
2021/08/14 07:05:12;;;;;;;3.28;2.20;;;20.70;50.70;;;;;;4120426;28;20018;-60
2021/08/14 07:07:17;;;;;;;3.17;2.30;;;20.70;50.70;;;;;;4116831;28;21238;-59
2021/08/14 07:09:20;;;;;;;6.72;2.35;;;20.70;50.70;;;;;;4121874;28;20030;-62
2021/08/14 07:11:22;;;;;;;;;;;20.70;50.70;;;;;;4121911;28;20033;-59
2021/08/14 07:13:24;;;;;;;7.78;2.90;;;20.70;50.90;;;;;;4121613;28;20298;-64
2021/08/14 07:15:27;;;;;;;11.73;4.10;;;20.70;50.20;;;;;;4120080;28;20033;-59
2021/08/14 07:17:29;;;;;;;9.77;4.68;;;20.60;51.00;;;;;;4119832;28;20066;-58
2021/08/14 07:19:31;;;;;;;12.10;6.75;;;20.60;51.10;;;;;;4120881;28;20066;-55
2021/08/14 07:21:33;;;;;;;15.07;7.65;;;20.60;50.90;;;;;;4119392;28;20768;-55
2021/08/14 07:23:36;;;;;;;15.50;6.13;;;20.50;50.40;;;;;;4116412;28;20332;-57
2021/08/14 07:25:38;;;;;;;11.30;7.00;;;20.50;50.10;;;;;;4119968;28;20045;-58
2021/08/14 07:27:41;;;;;;;16.48;6.65;;;20.50;50.10;;;;;;4121072;28;20567;-59
2021/08/14 07:29:43;;;;;;;12.87;6.60;;;20.40;50.00;;;;;;4120659;28;20124;-58
2021/08/14 07:31:45;;;;;;;12.85;7.07;;;20.40;50.00;;;;;;4119988;28;20513;-55
2021/08/14 07:33:47;;;;;;;16.73;8.32;;;20.40;49.90;;;;;;4118238;28;20499;-56
2021/08/14 07:35:50;;;;;;;15.75;8.02;;;20.40;49.90;;;;;;4112012;28;20727;-56
2021/08/14 07:37:52;;;;;;;15.82;8.95;;;20.40;49.90;;;;;;4118371;28;20084;-53
2021/08/14 07:39:55;;;;;;;18.23;9.07;;;20.30;49.80;;;;;;4119334;28;20030;-58
2021/08/14 07:41:57;;;;;;;17.05;10.30;;;20.30;49.70;;;;;;4120211;28;20115;-56
2021/08/14 07:43:59;;;;;;;21.73;11.27;;;20.30;49.80;;;;;;4118958;28;20526;-55
2021/08/14 07:46:01;;;;;;;23.10;11.85;;;20.30;49.80;;;;;;4118474;28;20034;-57
2021/08/14 07:48:05;;;;;;;22.92;11.70;;;20.30;49.90;;;;;;4120930;28;20518;-59
2021/08/14 07:50:08;;;;;;;22.60;12.73;;;20.20;50.20;;;;;;4119164;28;20038;-61
2021/08/14 07:52:10;;;;;;;22.40;14.20;;;20.20;50.70;;;;;;4120632;28;20050;-59
2021/08/14 07:54:12;;;;;;;25.92;14.13;;;20.20;50.80;;;;;;4113328;28;20036;-63
2021/08/14 07:56:14;;;;;;;21.80;12.25;;;20.20;50.90;;;;;;4119374;28;20033;-59
2021/08/14 07:58:16;;;;;;;27.20;13.18;;;20.20;51.10;;;;;;4113809;28;20058;-60
2021/08/14 08:00:21;;;;;;;21.45;12.48;;;20.20;51.00;;;;;;4108874;28;20195;-60
2021/08/14 08:02:23;;;;;;;22.05;12.73;;;20.10;51.00;;;;;;4107925;28;20117;-58
2021/08/14 08:04:25;;;;;;;23.63;12.77;;;20.20;51.50;;;;;;4111144;28;20588;-60
2021/08/14 08:06:27;;;;;;;20.27;11.85;;;20.10;51.70;;;;;;4110574;28;20036;-61
2021/08/14 08:08:29;;;;;;;24.98;12.55;;;20.10;52.00;;;;;;4113725;28;20450;-61
2021/08/14 08:10:32;;;;;;;19.40;11.65;;;20.10;52.00;;;;;;4114590;28;20661;-60
2021/08/14 08:12:35;;;;;;;26.15;13.05;;;20.10;52.10;;;;;;4096859;28;20825;-60
2021/08/14 08:14:37;;;;;;;21.52;11.60;;;20.10;52.40;;;;;;4111375;28;20040;-61
2021/08/14 08:16:39;;;;;;;18.48;12.40;;;20.10;52.40;;;;;;4113530;28;20027;-61
2021/08/14 08:18:41;;;;;;;19.55;10.80;;;20.10;52.50;;;;;;4115367;28;20021;-61
2021/08/14 08:20:43;;;;;;;20.45;11.32;;;20.10;52.60;;;;;;4110529;28;20670;-59
2021/08/14 08:22:46;;;;;;;19.50;10.63;;;20.10;53.30;;;;;;4114071;28;20034;-59
2021/08/14 08:24:48;;;;;;;29.80;10.75;;;20.10;52.80;;;;;;4113670;28;20029;-60
2021/08/14 08:26:50;;;;;;;21.70;11.95;;;20.10;52.90;;;;;;4115666;28;20559;-59
2021/08/14 08:28:52;;;;;;;18.15;10.80;;;20.10;52.90;;;;;;4116787;28;20034;-61
2021/08/14 08:30:54;;;;;;;15.65;10.38;;;20.10;53.10;;;;;;4111921;28;20270;-56
2021/08/14 08:32:57;;;;;;;18.75;10.02;;;20.10;52.70;;;;;;4114628;28;20073;-56
2021/08/14 08:34:59;;;;;;;17.67;9.65;;;20.10;52.90;;;;;;4113237;28;20027;-54
2021/08/14 08:37:02;;;;;;;21.88;9.90;;;20.10;52.90;;;;;;4112086;28;20109;-57
2021/08/14 08:39:11;;;;;;;16.67;9.98;;;20.10;53.00;;;;;;4099682;28;20455;-57
2021/08/14 08:41:17;;;;;;;15.85;9.23;;;20.00;53.60;;;;;;4115588;28;20085;-55
2021/08/14 08:43:19;;;;;;;16.30;9.18;;;20.00;52.90;;;;;;4113385;28;20117;-53
2021/08/14 08:45:21;;;;;;;18.10;9.40;;;20.00;53.00;;;;;;4116706;28;20436;-52
2021/08/14 08:47:23;;;;;;;13.60;9.45;;;20.00;53.10;;;;;;4115632;28;20045;-54
2021/08/14 08:49:26;;;;;;;16.33;9.68;;;20.00;53.20;;;;;;4114485;28;20547;-58
2021/08/14 08:51:31;;;;;;;15.50;8.90;;;20.00;53.30;;;;;;4113774;28;20614;-57
2021/08/14 08:53:34;;;;;;;17.27;9.43;;;20.00;53.30;;;;;;4114997;28;20046;-57
2021/08/14 08:55:36;;;;;;;16.38;9.52;;;20.00;53.40;;;;;;4113230;28;20433;-58
2021/08/14 08:57:38;;;;;;;13.52;8.23;;;20.00;53.30;;;;;;4115857;28;20057;-58
2021/08/14 08:59:41;;;;;;;12.75;8.85;;;20.00;53.40;;;;;;4113639;28;20050;-55
2021/08/14 09:01:44;;;;;;;16.50;9.15;;;20.00;53.40;;;;;;4116502;28;20033;-58
2021/08/14 09:03:46;;;;;;;14.65;8.40;;;20.00;53.70;;;;;;4114612;28;20468;-57
2021/08/14 09:05:52;;;;;;;16.65;9.20;;;19.90;53.60;;;;;;4112149;28;20041;-55
2021/08/14 09:07:55;;;;;;;15.70;9.35;;;19.90;53.80;;;;;;4114379;28;20045;-61
2021/08/14 09:10:01;;;;;;;14.63;9.07;;;20.00;53.90;;;;;;4112808;28;20125;-57
2021/08/14 09:12:04;;;;;;;13.10;8.30;;;20.00;53.70;;;;;;4111891;28;20155;-57
2021/08/14 09:14:07;;;;;;;13.95;8.23;;;19.90;53.60;;;;;;4115715;28;20134;-58
2021/08/14 09:16:20;;;;;;;13.55;8.50;;;19.90;53.70;;;;;;4110650;28;20038;-59
2021/08/14 09:18:22;;;;;;;13.27;8.65;;;19.90;53.60;;;;;;4115530;28;20419;-58
2021/08/14 09:20:25;;;;;;;15.88;9.07;;;20.00;53.80;;;;;;4112776;28;20044;-59
2021/08/14 09:22:27;;;;;;;14.18;8.75;;;19.90;53.90;;;;;;4112680;28;20077;-58
2021/08/14 09:24:36;;;;;;;16.15;8.40;;;19.90;54.10;;;;;;4116291;28;20045;-55
2021/08/14 09:26:47;;;;;;;15.40;8.35;;;19.90;54.20;;;;;;4112430;28;20033;-58
2021/08/14 09:29:03;;;;;;;13.35;8.80;;;19.90;54.40;;;;;;4113611;28;20113;-55
2021/08/14 09:31:09;;;;;;;15.32;8.65;;;19.90;54.50;;;;;;4114355;28;20046;-53
2021/08/14 09:33:15;;;;;;;13.02;8.63;;;19.90;54.50;;;;;;4115355;28;20025;-52
2021/08/14 09:35:28;;;;;;;18.45;8.80;;;19.90;54.50;;;;;;4110334;28;20815;-55
2021/08/14 09:37:38;;;;;;;16.10;9.20;;;19.90;54.50;;;;;;4113537;28;20536;-58
2021/08/14 09:40:01;;;;;;;15.27;8.25;;;19.90;54.50;;;;;;4114797;28;21578;-54
2021/08/14 09:42:06;;;;;;;13.10;8.13;;;19.90;54.60;;;;;;4113815;28;20483;-57
2021/08/14 09:44:15;;;;;;;17.90;9.32;;;19.90;54.60;;;;;;4111320;28;20091;-56
2021/08/14 09:46:17;;;;;;;12.52;9.55;;;19.90;54.30;;;;;;4113157;28;20145;-56
2021/08/14 09:48:22;;;;;;;12.73;8.88;;;19.90;54.20;;;;;;4112976;28;20429;-57
2021/08/14 09:50:35;;;;;;;12.98;8.85;;;19.90;54.20;;;;;;4109718;28;20457;-58
2021/08/14 09:52:38;;;;;;;12.23;9.15;;;19.90;54.30;;;;;;4112177;28;20041;-57
2021/08/14 09:54:40;;;;;;;14.55;9.75;;;19.90;54.20;;;;;;4111170;28;20022;-59
2021/08/14 09:56:43;;;;;;;15.35;10.10;;;19.90;54.50;;;;;;4110486;28;20085;-59
2021/08/14 09:58:45;;;;;;;13.27;9.25;;;19.80;54.50;;;;;;4123202;28;20760;-58
2021/08/14 10:00:49;;;;;;;12.75;10.05;;;19.80;54.50;;;;;;4127616;28;20029;-57
2021/08/14 10:02:52;;;;;;;12.63;9.25;;;19.80;54.50;;;;;;4128664;28;20118;-56
2021/08/14 10:04:56;;;;;;;14.30;9.98;;;19.80;54.50;;;;;;4127905;28;20080;-56
2021/08/14 10:06:58;;;;;;;13.98;10.00;;;19.80;54.80;;;;;;4129115;28;20041;-58
2021/08/14 10:09:00;;;;;;;13.15;9.77;;;19.80;54.80;;;;;;4129175;28;20211;-56
2021/08/14 10:11:07;;;;;;;13.32;9.13;;;19.80;54.90;;;;;;4127336;28;21099;-58
2021/08/14 10:13:09;;;;;;;12.88;9.63;;;19.80;54.90;;;;;;4125281;28;20156;-58
2021/08/14 10:15:12;;;;;;;13.60;9.57;;;19.80;54.90;;;;;;4127896;28;20886;-58
2021/08/14 10:17:23;;;;;;;12.93;9.60;;;19.80;54.90;;;;;;4124900;28;20038;-58
2021/08/14 10:19:26;;;;;;;15.35;9.75;;;19.80;54.90;;;;;;4126268;28;20432;-55
2021/08/14 10:21:28;;;;;;;15.23;9.82;;;19.80;54.90;;;;;;4125049;28;20029;-58
2021/08/14 10:23:30;;;;;;;14.32;9.75;;;19.70;54.90;;;;;;4127986;28;20044;-51
2021/08/14 10:25:35;;;;;;;12.98;9.45;;;19.80;55.70;;;;;;4125247;28;20117;-55
2021/08/14 10:28:07;;;;;;;12.60;10.57;;;19.70;55.20;;;;;;4126024;28;20030;-50
2021/08/14 10:30:10;;;;;;;13.88;10.13;;;19.70;55.20;;;;;;4119700;28;20050;-53
2021/08/14 10:32:32;;;;;;;17.08;10.80;;;19.70;55.10;;;;;;4129041;28;21541;-57
2021/08/14 10:34:35;;;;;;;15.60;10.65;;;19.70;55.10;;;;;;4128126;28;20968;-54
2021/08/14 10:36:41;;;;;;;13.55;10.80;;;19.70;55.20;;;;;;4127155;28;20034;-54
2021/08/14 10:38:45;;;;;;;11.85;10.60;;;19.70;55.60;;;;;;4129955;28;20045;-56
2021/08/14 10:41:00;;;;;;;15.25;10.40;;;19.70;55.30;;;;;;4127152;28;20036;-56
2021/08/14 10:43:02;;;;;;;13.40;10.88;;;19.60;55.30;;;;;;4128535;28;20033;-54